Time;durP1;ratioP1;P1;durP2;ratioP2;P2;SDS_P1;SDS_P2;PMS_P1;PMS_P2;Temp;Humidity;BMP_temperature;BMP_pressure;BME280_temperature;BME280_humidity;BME280_pressure;Samples;Min_cycle;Max_cycle;Signal;HPM_P1;HPM_P2
2023/12/28 00:02:17;;;;;;;;;;;19.90;49.00;;;;;;5043072;28;19932;-60
2023/12/28 00:04:43;;;;;;;;;;;19.90;49.10;;;;;;5033305;28;19952;-60
2023/12/28 00:07:10;;;;;;;;;;;19.90;49.10;;;;;;5033862;28;19935;-59
2023/12/28 00:09:37;;;;;;;;;;;19.80;49.00;;;;;;5039372;28;19925;-60
2023/12/28 00:12:04;;;;;;;;;;;19.90;49.10;;;;;;5045866;28;19921;-60
2023/12/28 00:14:31;;;;;;;;;;;19.80;49.00;;;;;;5025754;28;19921;-59
2023/12/28 00:16:58;;;;;;;;;;;19.80;49.00;;;;;;5045219;28;19921;-60
2023/12/28 00:19:26;;;;;;;;;;;19.90;49.10;;;;;;5027443;28;19928;-60
2023/12/28 00:21:53;;;;;;;;;;;19.90;49.10;;;;;;5044609;28;19921;-60
2023/12/28 00:24:20;;;;;;;;;;;19.90;49.10;;;;;;5025432;28;19936;-60
2023/12/28 00:26:47;;;;;;;;;;;19.80;49.00;;;;;;5031139;28;20520;-60
2023/12/28 00:29:14;;;;;;;;;;;19.90;49.10;;;;;;5008062;28;19921;-60
2023/12/28 00:31:40;;;;;;;;;;;19.90;49.10;;;;;;5025489;28;19920;-60
2023/12/28 00:34:07;;;;;;;;;;;19.90;49.10;;;;;;5042091;28;19925;-60
2023/12/28 00:36:35;;;;;;;;;;;19.90;49.10;;;;;;5030253;28;19982;-60
2023/12/28 00:39:03;;;;;;;;;;;19.90;49.10;;;;;;5019223;28;19991;-60
2023/12/28 00:41:29;;;;;;;;;;;19.90;49.10;;;;;;5035839;28;20016;-60
2023/12/28 00:43:56;;;;;;;;;;;19.90;49.10;;;;;;5035484;28;19952;-60
2023/12/28 00:46:23;;;;;;;;;;;19.90;49.10;;;;;;5013371;28;20150;-60
2023/12/28 00:48:49;;;;;;;;;;;19.90;49.10;;;;;;5019280;28;19966;-60
2023/12/28 00:51:16;;;;;;;;;;;19.80;49.10;;;;;;5031097;28;19979;-60
2023/12/28 00:53:44;;;;;;;;;;;19.90;49.10;;;;;;5047098;28;19982;-60
2023/12/28 00:56:11;;;;;;;;;;;19.80;49.00;;;;;;5024846;28;19921;-60
2023/12/28 00:58:39;;;;;;;;;;;19.90;49.10;;;;;;5032229;28;19925;-61
2023/12/28 01:01:06;;;;;;;;;;;19.80;49.00;;;;;;5019573;28;19920;-60
2023/12/28 01:03:33;;;;;;;;;;;19.90;49.10;;;;;;5017906;28;19921;-60
2023/12/28 01:05:59;;;;;;;;;;;19.80;49.00;;;;;;5018447;28;19925;-60
2023/12/28 01:08:26;;;;;;;;;;;19.80;49.00;;;;;;5032107;28;19924;-60
2023/12/28 01:10:54;;;;;;;;;;;19.90;49.10;;;;;;5018116;28;20023;-60
2023/12/28 01:13:21;;;;;;;;;;;19.90;49.10;;;;;;5037347;28;19925;-60
2023/12/28 01:15:48;;;;;;;;;;;19.90;49.10;;;;;;5032962;28;20558;-60
2023/12/28 01:18:14;;;;;;;;;;;19.80;49.00;;;;;;5017184;28;19921;-60
2023/12/28 01:20:41;;;;;;;;;;;19.80;49.10;;;;;;5021354;28;20058;-60
2023/12/28 01:23:08;;;;;;;;;;;19.80;49.10;;;;;;5024421;28;19925;-60
2023/12/28 01:25:35;;;;;;;;;;;19.90;49.10;;;;;;5022525;28;19971;-60
2023/12/28 01:28:04;;;;;;;;;;;19.90;49.10;;;;;;5043660;28;20007;-60
2023/12/28 01:30:31;;;;;;;;;;;19.90;49.10;;;;;;5030619;28;20183;-60
2023/12/28 01:32:56;;;;;;;;;;;19.90;49.10;;;;;;5039749;28;19939;-60
2023/12/28 01:35:23;;;;;;;;;;;19.90;49.10;;;;;;5030995;28;19921;-60
2023/12/28 01:37:50;;;;;;;;;;;19.90;49.10;;;;;;5024985;28;19928;-60
2023/12/28 01:40:17;;;;;;;;;;;19.90;49.10;;;;;;5014821;28;20007;-60
2023/12/28 01:42:44;;;;;;;;;;;19.80;49.10;;;;;;5030776;28;20004;-60
2023/12/28 01:45:12;;;;;;;;;;;19.90;49.10;;;;;;5017473;28;19921;-60
2023/12/28 01:47:39;;;;;;;;;;;19.80;49.10;;;;;;5021445;28;20428;-60
2023/12/28 01:50:06;;;;;;;;;;;19.90;49.10;;;;;;5044679;28;19925;-60
2023/12/28 01:52:33;;;;;;;;;;;19.90;49.10;;;;;;5012703;28;19975;-60
2023/12/28 01:55:00;;;;;;;;;;;19.80;49.10;;;;;;5021302;28;20351;-60
2023/12/28 01:57:27;;;;;;;;;;;19.80;49.10;;;;;;5034655;28;19921;-60
2023/12/28 01:59:54;;;;;;;;;;;19.80;49.10;;;;;;5023193;28;19925;-60
2023/12/28 02:02:22;;;;;;;;;;;19.90;49.10;;;;;;5018233;28;19933;-60
2023/12/28 02:04:49;;;;;;;;;;;19.80;49.10;;;;;;5036239;28;19928;-60
2023/12/28 02:07:16;;;;;;;;;;;19.80;49.10;;;;;;5032045;28;19944;-60
2023/12/28 02:09:43;;;;;;;;;;;19.80;49.10;;;;;;5027922;28;19925;-60
2023/12/28 02:12:09;;;;;;;;;;;19.90;49.10;;;;;;5027876;28;19925;-60
2023/12/28 02:14:36;;;;;;;;;;;19.90;49.10;;;;;;5027532;28;19971;-60
2023/12/28 02:17:04;;;;;;;;;;;19.80;49.10;;;;;;5022835;28;19922;-60
2023/12/28 02:19:40;;;;;;;;;;;19.90;49.20;;;;;;5026099;28;20039;-60
2023/12/28 02:22:06;;;;;;;;;;;19.90;49.10;;;;;;5034994;28;19921;-60
2023/12/28 02:24:33;;;;;;;;;;;19.90;49.10;;;;;;5035633;28;19920;-59
2023/12/28 02:27:01;;;;;;;;;;;19.90;49.10;;;;;;5024654;28;20316;-60
2023/12/28 02:29:28;;;;;;;;;;;19.90;49.10;;;;;;5018148;28;19948;-60
2023/12/28 02:31:57;;;;;;;;;;;19.90;49.10;;;;;;5024229;28;19921;-60
2023/12/28 02:34:27;;;;;;;;;;;19.90;49.20;;;;;;5034640;28;19925;-60
2023/12/28 02:36:53;;;;;;;;;;;19.90;49.10;;;;;;5019264;28;19991;-60
2023/12/28 02:39:20;;;;;;;;;;;19.90;49.10;;;;;;5019354;28;19975;-60
2023/12/28 02:41:47;;;;;;;;;;;19.80;49.10;;;;;;5015805;28;19925;-60
2023/12/28 02:44:15;;;;;;;;;;;19.90;49.10;;;;;;5037348;28;19951;-60
2023/12/28 02:46:42;;;;;;;;;;;19.80;49.10;;;;;;5026156;28;19921;-60
2023/12/28 02:49:10;;;;;;;;;;;19.90;49.10;;;;;;5036885;28;19929;-60
2023/12/28 02:51:37;;;;;;;;;;;19.90;49.10;;;;;;5015642;28;19921;-60
2023/12/28 02:54:04;;;;;;;;;;;19.90;49.10;;;;;;5046896;28;19925;-60
2023/12/28 02:56:32;;;;;;;;;;;19.80;49.10;;;;;;5017060;28;19921;-60
2023/12/28 02:58:59;;;;;;;;;;;19.90;49.10;;;;;;5033301;28;20019;-60
2023/12/28 03:01:28;;;;;;;;;;;19.80;49.00;;;;;;5024618;28;19921;-60
2023/12/28 03:03:55;;;;;;;;;;;19.90;49.10;;;;;;5021087;28;20354;-60
2023/12/28 03:06:20;;;;;;;;;;;19.80;49.10;;;;;;5025474;28;19921;-60
2023/12/28 03:08:47;;;;;;;;;;;19.80;49.10;;;;;;5039976;28;19975;-60
2023/12/28 03:11:14;;;;;;;;;;;19.90;49.20;;;;;;5015282;28;19965;-60
2023/12/28 03:13:40;;;;;;;;;;;19.80;49.10;;;;;;5023203;28;20351;-60
2023/12/28 03:16:07;;;;;;;;;;;19.90;49.10;;;;;;5034630;28;19925;-60
2023/12/28 03:18:35;;;;;;;;;;;19.80;49.10;;;;;;5024825;28;19921;-60
2023/12/28 03:21:02;;;;;;;;;;;19.80;49.10;;;;;;5015010;28;19925;-60
2023/12/28 03:23:29;;;;;;;;;;;19.80;49.10;;;;;;5025164;28;19924;-60
2023/12/28 03:25:55;;;;;;;;;;;19.80;49.10;;;;;;5022066;28;19967;-60
2023/12/28 03:28:22;;;;;;;;;;;19.80;49.70;;;;;;5041028;28;19925;-60
2023/12/28 03:30:49;;;;;;;;;;;19.90;49.20;;;;;;5040360;28;19928;-60
2023/12/28 03:33:16;;;;;;;;;;;19.90;49.10;;;;;;5022197;28;19921;-60
2023/12/28 03:35:44;;;;;;;;;;;19.90;49.10;;;;;;5022778;28;19921;-60
2023/12/28 03:38:10;;;;;;;;;;;19.80;49.10;;;;;;5038909;28;19921;-59
2023/12/28 03:40:37;;;;;;;;;;;19.80;49.10;;;;;;5032193;28;19920;-59
2023/12/28 03:43:04;;;;;;;;;;;19.80;49.10;;;;;;5051641;28;19982;-59
2023/12/28 03:45:31;;;;;;;;;;;19.90;49.10;;;;;;5043604;28;19947;-59
2023/12/28 03:47:57;;;;;;;;;;;19.90;49.20;;;;;;5021443;28;19975;-59
2023/12/28 03:50:24;;;;;;;;;;;19.80;49.10;;;;;;5014326;28;19921;-59
2023/12/28 03:52:52;;;;;;;;;;;19.90;49.20;;;;;;5021583;28;20370;-59
2023/12/28 03:55:19;;;;;;;;;;;19.90;49.20;;;;;;5033168;28;19959;-59
2023/12/28 03:57:47;;;;;;;;;;;19.90;49.20;;;;;;5029533;28;20500;-59
2023/12/28 04:00:16;;;;;;;;;;;19.80;49.10;;;;;;5026112;28;19952;-60
2023/12/28 04:02:42;;;;;;;;;;;19.90;49.20;;;;;;5027230;28;19925;-59
2023/12/28 04:05:09;;;;;;;;;;;19.80;49.10;;;;;;5014165;28;19925;-59
2023/12/28 04:07:36;;;;;;;;;;;19.90;49.20;;;;;;5017201;28;19921;-59
2023/12/28 04:10:05;;;;;;;;;;;19.80;49.10;;;;;;5032635;28;19951;-59
2023/12/28 04:12:30;;;;;;;;;;;19.90;49.20;;;;;;5018390;28;19925;-59
2023/12/28 04:14:57;;;;;;;;;;;19.80;49.10;;;;;;5013895;28;19921;-60
2023/12/28 04:17:24;;;;;;;;;;;19.90;49.10;;;;;;5022610;28;19928;-59
2023/12/28 04:19:50;;;;;;;;;;;19.80;49.10;;;;;;5005029;28;19964;-60
2023/12/28 04:22:17;;;;;;;;;;;19.90;49.20;;;;;;5017364;28;19925;-59
2023/12/28 04:24:44;;;;;;;;;;;19.80;49.10;;;;;;5048122;28;20428;-59
2023/12/28 04:27:12;;;;;;;;;;;19.90;49.20;;;;;;5014036;28;19929;-59
2023/12/28 04:29:39;;;;;;;;;;;19.90;49.10;;;;;;5024028;28;20001;-59
2023/12/28 04:32:06;;;;;;;;;;;19.80;49.10;;;;;;5047728;28;20033;-59
2023/12/28 04:34:32;;;;;;;;;;;19.80;49.10;;;;;;5025636;28;19921;-60
2023/12/28 04:36:59;;;;;;;;;;;19.80;49.10;;;;;;5051377;28;19939;-60
2023/12/28 04:39:26;;;;;;;;;;;19.80;49.10;;;;;;5024889;28;19925;-59
2023/12/28 04:41:53;;;;;;;;;;;19.80;49.10;;;;;;5040648;28;19924;-60
2023/12/28 04:44:21;;;;;;;;;;;19.90;49.20;;;;;;5013671;28;19928;-59
2023/12/28 04:46:48;;;;;;;;;;;19.80;49.10;;;;;;5024701;28;19979;-60
2023/12/28 04:49:15;;;;;;;;;;;19.90;49.10;;;;;;5017856;28;19975;-59
2023/12/28 04:51:45;;;;;;;;;;;19.80;49.10;;;;;;5013638;28;19925;-60
2023/12/28 04:54:11;;;;;;;;;;;19.80;49.10;;;;;;5050263;28;19928;-59
2023/12/28 04:56:38;;;;;;;;;;;19.80;49.10;;;;;;5030309;28;19928;-60
2023/12/28 04:59:05;;;;;;;;;;;19.80;49.10;;;;;;5038702;28;19921;-59
2023/12/28 05:01:33;;;;;;;;;;;19.80;49.10;;;;;;5022858;28;19937;-59
2023/12/28 05:04:00;;;;;;;;;;;19.90;49.20;;;;;;5019906;28;19929;-60
2023/12/28 05:06:28;;;;;;;;;;;19.90;49.20;;;;;;5030313;28;20130;-59
2023/12/28 05:08:55;;;;;;;;;;;19.90;49.20;;;;;;5019720;28;19928;-59
2023/12/28 05:11:21;;;;;;;;;;;19.90;49.20;;;;;;5021515;28;19979;-59
2023/12/28 05:13:48;;;;;;;;;;;19.80;49.10;;;;;;5041730;28;19920;-60
2023/12/28 05:16:15;;;;;;;;;;;19.80;49.10;;;;;;5042097;28;19932;-60
2023/12/28 05:18:43;;;;;;;;;;;19.80;49.10;;;;;;5018787;28;19921;-59
2023/12/28 05:21:10;;;;;;;;;;;19.80;49.10;;;;;;5037508;28;19933;-59
2023/12/28 05:23:36;;;;;;;;;;;19.80;49.10;;;;;;5020531;28;19924;-59
2023/12/28 05:26:03;;;;;;;;;;;19.80;49.10;;;;;;5022129;28;19925;-59
2023/12/28 05:28:30;;;;;;;;;;;19.90;49.20;;;;;;5018850;28;20215;-60
2023/12/28 05:30:58;;;;;;;;;;;19.80;49.10;;;;;;5028984;28;19925;-60
2023/12/28 05:33:25;;;;;;;;;;;19.80;49.10;;;;;;5046996;28;19921;-59
2023/12/28 05:35:53;;;;;;;;;;;19.80;49.10;;;;;;5023360;28;19925;-59
2023/12/28 05:38:20;;;;;;;;;;;19.80;49.10;;;;;;5025844;28;19924;-59
2023/12/28 05:40:47;;;;;;;;;;;19.80;49.10;;;;;;5044461;28;19974;-59
2023/12/28 05:43:13;;;;;;;;;;;19.80;49.10;;;;;;5039791;28;19925;-60
2023/12/28 05:45:40;;;;;;;;;;;19.80;49.10;;;;;;5048005;28;19975;-59
2023/12/28 05:48:07;;;;;;;;;;;19.80;49.10;;;;;;5016902;28;19925;-60
2023/12/28 05:50:33;;;;;;;;;;;19.80;49.10;;;;;;5034874;28;19978;-59
2023/12/28 05:53:02;;;;;;;;;;;19.80;49.10;;;;;;5023818;28;19932;-59
2023/12/28 05:55:29;;;;;;;;;;;19.90;49.20;;;;;;5027562;28;19920;-59
2023/12/28 05:57:56;;;;;;;;;;;19.80;49.10;;;;;;5040434;28;19925;-59
2023/12/28 06:00:22;;;;;;;;;;;19.80;49.10;;;;;;5037106;28;19927;-59
2023/12/28 06:02:51;;;;;;;;;;;19.80;49.10;;;;;;5046982;28;20023;-60
2023/12/28 06:05:18;;;;;;;;;;;19.80;49.10;;;;;;5028403;28;19921;-60
2023/12/28 06:07:44;;;;;;;;;;;19.80;49.10;;;;;;5034169;28;20043;-60
2023/12/28 06:10:12;;;;;;;;;;;19.80;49.10;;;;;;5054184;28;19948;-59
2023/12/28 06:12:39;;;;;;;;;;;19.90;49.20;;;;;;5032692;28;19951;-60
2023/12/28 06:15:06;;;;;;;;;;;19.80;49.10;;;;;;5034095;28;19925;-60
2023/12/28 06:17:33;;;;;;;;;;;19.90;49.20;;;;;;5015860;28;19960;-60
2023/12/28 06:20:00;;;;;;;;;;;19.80;49.70;;;;;;5016282;28;19922;-60
2023/12/28 06:22:27;;;;;;;;;;;19.80;49.10;;;;;;5031805;28;19966;-60
2023/12/28 06:24:54;;;;;;;;;;;19.80;49.10;;;;;;5028559;28;19921;-59
2023/12/28 06:27:22;;;;;;;;;;;19.80;49.10;;;;;;5035226;28;19951;-59
2023/12/28 06:29:50;;;;;;;;;;;19.80;49.10;;;;;;5038055;28;19963;-60
2023/12/28 06:32:16;;;;;;;;;;;19.80;49.10;;;;;;5027651;28;19920;-59
2023/12/28 06:34:43;;;;;;;;;;;19.80;49.10;;;;;;5016647;28;19925;-59
2023/12/28 06:37:10;;;;;;;;;;;19.90;49.20;;;;;;5036735;28;19990;-60
2023/12/28 06:39:36;;;;;;;;;;;19.80;49.10;;;;;;5036597;28;19931;-59
2023/12/28 06:42:03;;;;;;;;;;;19.80;49.10;;;;;;5046136;28;19974;-59
2023/12/28 06:44:32;;;;;;;;;;;19.80;49.10;;;;;;5032309;28;19920;-59
2023/12/28 06:46:59;;;;;;;;;;;19.80;49.10;;;;;;5045157;28;19925;-59
2023/12/28 06:49:25;;;;;;;;;;;19.80;49.10;;;;;;5051631;28;19956;-60
2023/12/28 06:51:52;;;;;;;;;;;19.80;49.10;;;;;;5020354;28;19936;-60
2023/12/28 06:54:19;;;;;;;;;;;19.80;49.10;;;;;;5029895;28;19925;-59
2023/12/28 06:56:46;;;;;;;;;;;19.80;49.10;;;;;;5046619;28;19921;-59
2023/12/28 06:59:13;;;;;;;;;;;19.80;49.10;;;;;;5056324;28;19921;-59
2023/12/28 07:01:41;;;;;;;;;;;19.80;49.10;;;;;;5035575;28;19920;-59
2023/12/28 07:04:08;;;;;;;;;;;19.80;49.10;;;;;;5053859;28;19920;-59
2023/12/28 07:06:35;;;;;;;;;;;19.80;49.10;;;;;;5026022;28;19925;-60
2023/12/28 07:09:02;;;;;;;;;;;19.80;49.10;;;;;;5050521;28;19974;-59
2023/12/28 07:11:29;;;;;;;;;;;19.80;49.10;;;;;;5050980;28;19982;-60
2023/12/28 07:13:55;;;;;;;;;;;19.80;49.10;;;;;;5027320;28;19920;-60
2023/12/28 07:16:22;;;;;;;;;;;19.80;49.10;;;;;;5032370;28;19931;-59
2023/12/28 07:18:50;;;;;;;;;;;19.90;49.10;;;;;;5042498;28;19956;-60
2023/12/28 07:21:17;;;;;;;;;;;19.80;49.10;;;;;;5045194;28;19971;-61
2023/12/28 07:23:48;;;;;;;;;;;19.80;49.10;;;;;;5027803;28;19925;-62
2023/12/28 07:26:15;;;;;;;;;;;19.80;49.10;;;;;;5043822;28;20350;-60
2023/12/28 07:28:44;;;;;;;;;;;19.80;49.10;;;;;;5047164;28;19932;-59
2023/12/28 07:31:11;;;;;;;;;;;19.80;49.10;;;;;;5033267;28;19921;-59
2023/12/28 07:33:38;;;;;;;;;;;19.80;49.10;;;;;;5029944;28;19947;-59
2023/12/28 07:36:06;;;;;;;;;;;19.80;49.10;;;;;;5031353;28;19924;-59
2023/12/28 07:38:33;;;;;;;;;;;19.80;49.10;;;;;;5049751;28;19925;-59
2023/12/28 07:41:00;;;;;;;;;;;19.80;49.10;;;;;;5032314;28;19991;-59
2023/12/28 07:43:29;;;;;;;;;;;19.80;49.10;;;;;;5027113;28;19956;-60
2023/12/28 07:45:56;;;;;;;;;;;19.80;49.10;;;;;;5047674;28;19932;-60
2023/12/28 07:48:23;;;;;;;;;;;19.80;49.10;;;;;;5024639;28;19979;-60
2023/12/28 07:50:51;;;;;;;;;;;19.80;49.30;;;;;;5041901;28;19925;-60
2023/12/28 07:53:19;;;;;;;;;;;19.80;49.10;;;;;;5028430;28;20194;-59
2023/12/28 07:55:46;;;;;;;;;;;19.80;49.10;;;;;;5030916;28;19921;-60
2023/12/28 07:58:13;;;;;;;;;;;19.80;49.10;;;;;;5032141;28;19951;-60
2023/12/28 08:00:40;;;;;;;;;;;19.80;49.10;;;;;;5042476;28;20374;-61
2023/12/28 08:03:06;;;;;;;;;;;19.80;49.10;;;;;;5041088;28;19921;-60
2023/12/28 08:05:33;;;;;;;;;;;19.80;49.10;;;;;;5042767;28;19925;-61
2023/12/28 08:08:00;;;;;;;;;;;19.80;49.10;;;;;;5039744;28;19921;-61
2023/12/28 08:10:28;;;;;;;;;;;19.80;49.10;;;;;;5048950;28;19966;-61
2023/12/28 08:12:55;;;;;;;;;;;19.80;49.10;;;;;;5050257;28;19971;-60
2023/12/28 08:15:21;;;;;;;;;;;19.80;49.60;;;;;;5017124;28;19925;-61
2023/12/28 08:17:48;;;;;;;;;;;19.80;49.10;;;;;;5028702;28;19976;-61
2023/12/28 08:20:15;;;;;;;;;;;19.80;49.10;;;;;;5026622;28;19920;-60
2023/12/28 08:22:41;;;;;;;;;;;19.80;49.10;;;;;;5027222;28;19932;-60
2023/12/28 08:25:09;;;;;;;;;;;19.80;49.10;;;;;;5031503;28;19970;-60
2023/12/28 08:27:37;;;;;;;;;;;19.80;49.60;;;;;;5029711;28;19920;-60
2023/12/28 08:30:04;;;;;;;;;;;19.80;49.10;;;;;;5030371;28;19947;-60
2023/12/28 08:32:31;;;;;;;;;;;19.90;49.10;;;;;;5024264;28;19925;-60
2023/12/28 08:34:58;;;;;;;;;;;19.80;49.10;;;;;;5023448;28;19921;-60
2023/12/28 08:37:24;;;;;;;;;;;19.80;49.10;;;;;;5047745;28;19920;-60
2023/12/28 08:39:51;;;;;;;;;;;19.90;49.10;;;;;;5046888;28;19922;-60
2023/12/28 08:42:18;;;;;;;;;;;19.80;49.10;;;;;;5031919;28;19975;-60
2023/12/28 08:44:46;;;;;;;;;;;19.90;49.20;;;;;;5025035;28;19978;-61
2023/12/28 08:47:13;;;;;;;;;;;19.80;49.10;;;;;;5039652;28;19924;-60
2023/12/28 08:49:39;;;;;;;;;;;19.80;49.10;;;;;;5041705;28;20024;-60
2023/12/28 08:52:06;;;;;;;;;;;19.90;49.10;;;;;;5030542;28;19933;-60
2023/12/28 08:54:33;;;;;;;;;;;19.90;49.20;;;;;;5025130;28;20399;-60
2023/12/28 08:57:00;;;;;;;;;;;19.80;49.10;;;;;;5023600;28;19947;-60
2023/12/28 08:59:26;;;;;;;;;;;19.90;49.10;;;;;;5028121;28;19994;-60
2023/12/28 09:01:55;;;;;;;;;;;19.90;49.10;;;;;;5026417;28;19944;-60
2023/12/28 09:04:22;;;;;;;;;;;19.80;49.10;;;;;;5047107;28;19956;-60
2023/12/28 09:06:49;;;;;;;;;;;19.90;49.10;;;;;;5033174;28;19928;-60
2023/12/28 09:09:15;;;;;;;;;;;19.90;49.10;;;;;;5028013;28;19922;-60
2023/12/28 09:11:42;;;;;;;;;;;19.90;49.10;;;;;;5049486;28;20094;-60
2023/12/28 09:14:09;;;;;;;;;;;19.80;49.10;;;;;;5029329;28;20362;-60
2023/12/28 09:16:36;;;;;;;;;;;19.90;49.10;;;;;;5042618;28;19924;-60
2023/12/28 09:19:04;;;;;;;;;;;19.80;49.10;;;;;;5042013;28;20012;-60
2023/12/28 09:21:30;;;;;;;;;;;19.90;49.10;;;;;;5045554;28;19944;-60
2023/12/28 09:23:57;;;;;;;;;;;19.80;49.10;;;;;;5052959;28;20046;-60
2023/12/28 09:26:24;;;;;;;;;;;19.90;49.10;;;;;;5030803;28;19975;-60
2023/12/28 09:28:51;;;;;;;;;;;19.90;49.10;;;;;;5028347;28;19925;-60
2023/12/28 09:31:17;;;;;;;;;;;19.80;49.10;;;;;;5031218;28;19920;-60
2023/12/28 09:33:44;;;;;;;;;;;19.80;49.10;;;;;;5025636;28;19932;-60
2023/12/28 09:36:13;;;;;;;;;;;19.80;49.00;;;;;;5040287;28;19952;-60
2023/12/28 09:38:39;;;;;;;;;;;19.80;49.10;;;;;;5050708;28;19925;-60
2023/12/28 09:41:14;;;;;;;;;;;19.80;49.10;;;;;;5030634;28;19925;-60
2023/12/28 09:43:42;;;;;;;;;;;19.90;49.10;;;;;;5029448;28;19953;-60
2023/12/28 09:46:11;;;;;;;;;;;19.90;49.10;;;;;;5046297;28;19964;-60
2023/12/28 09:48:37;;;;;;;;;;;19.90;49.10;;;;;;5051270;28;20131;-60
2023/12/28 09:51:04;;;;;;;;;;;19.80;49.10;;;;;;5027897;28;20067;-60
2023/12/28 09:53:32;;;;;;;;;;;19.80;49.10;;;;;;5029384;28;19921;-60
2023/12/28 09:55:59;;;;;;;;;;;19.90;49.10;;;;;;5049243;28;19925;-60
2023/12/28 09:58:27;;;;;;;;;;;19.90;49.10;;;;;;5031788;28;19932;-60
2023/12/28 10:00:54;;;;;;;;;;;19.90;49.10;;;;;;5029219;28;19932;-60
2023/12/28 10:03:21;;;;;;;;;;;19.90;49.10;;;;;;5029544;28;19960;-60
2023/12/28 10:05:48;;;;;;;;;;;19.90;49.10;;;;;;5033027;28;19921;-60
2023/12/28 10:08:14;;;;;;;;;;;19.90;49.10;;;;;;5047858;28;20377;-60
2023/12/28 10:10:43;;;;;;;;;;;19.90;49.10;;;;;;5034552;28;19932;-60
2023/12/28 10:13:10;;;;;;;;;;;19.90;49.10;;;;;;5044737;28;19929;-60
2023/12/28 10:15:37;;;;;;;;;;;19.90;49.10;;;;;;5031472;28;19921;-60
2023/12/28 10:18:04;;;;;;;;;;;19.90;49.10;;;;;;5028509;28;19921;-60
2023/12/28 10:20:31;;;;;;;;;;;19.90;49.10;;;;;;5026781;28;19932;-60
2023/12/28 10:22:58;;;;;;;;;;;19.90;49.10;;;;;;5028547;28;19973;-60
2023/12/28 10:25:25;;;;;;;;;;;19.90;49.10;;;;;;5048270;28;19921;-60
2023/12/28 10:27:53;;;;;;;;;;;19.90;49.10;;;;;;5034255;28;19925;-60
2023/12/28 10:30:20;;;;;;;;;;;19.90;49.10;;;;;;5049601;28;20263;-60
2023/12/28 10:32:47;;;;;;;;;;;19.90;49.10;;;;;;5031803;28;19982;-60
2023/12/28 10:35:14;;;;;;;;;;;19.90;49.10;;;;;;5034474;28;19951;-60
2023/12/28 10:37:41;;;;;;;;;;;19.90;49.10;;;;;;5031819;28;19921;-60
2023/12/28 10:40:09;;;;;;;;;;;19.90;49.10;;;;;;5034482;28;19925;-60
2023/12/28 10:42:38;;;;;;;;;;;19.90;49.10;;;;;;5031937;28;19920;-60
2023/12/28 10:45:07;;;;;;;;;;;19.90;49.10;;;;;;5030951;28;19920;-60
2023/12/28 10:47:35;;;;;;;;;;;19.90;49.10;;;;;;5049085;28;20007;-60
2023/12/28 10:50:04;;;;;;;;;;;19.90;49.10;;;;;;5032601;28;20022;-60
2023/12/28 10:52:31;;;;;;;;;;;19.90;49.10;;;;;;5015700;28;19920;-60
2023/12/28 10:55:03;;;;;;;;;;;19.90;49.10;;;;;;5028705;28;19925;-60
2023/12/28 10:57:32;;;;;;;;;;;19.90;49.10;;;;;;5015539;28;19921;-61
2023/12/28 11:00:01;;;;;;;;;;;19.90;49.10;;;;;;5032536;28;19944;-60
2023/12/28 11:02:29;;;;;;;;;;;19.90;49.10;;;;;;5047717;28;19921;-60
2023/12/28 11:04:56;;;;;;;;;;;19.90;49.10;;;;;;5032896;28;19921;-60
2023/12/28 11:07:23;;;;;;;;;;;19.90;49.10;;;;;;5048898;28;19921;-60
2023/12/28 11:09:55;;;;;;;;;;;19.90;49.10;;;;;;5032029;28;19928;-59
2023/12/28 11:12:22;;;;;;;;;;;19.90;49.10;;;;;;5032357;28;19941;-59
2023/12/28 11:14:50;;;;;;;;;;;19.90;49.10;;;;;;5049721;28;19920;-60
2023/12/28 11:17:20;;;;;;;;;;;19.90;49.10;;;;;;5008735;28;20317;-60
2023/12/28 11:19:55;;;;;;;;;;;19.90;49.10;;;;;;5030022;28;20015;-60
2023/12/28 11:22:23;;;;;;;;;;;19.90;49.10;;;;;;5034254;28;19932;-60
2023/12/28 11:24:50;;;;;;;;;;;19.90;49.10;;;;;;5025384;28;19921;-60
2023/12/28 11:27:18;;;;;;;;;;;19.90;49.10;;;;;;5032324;28;19940;-60
2023/12/28 11:29:47;;;;;;;;;;;19.90;49.10;;;;;;5013334;28;19932;-60
2023/12/28 11:32:15;;;;;;;;;;;19.90;49.10;;;;;;5039075;28;19925;-60
2023/12/28 11:34:42;;;;;;;;;;;19.90;49.10;;;;;;5046738;28;19939;-60
2023/12/28 11:37:20;;;;;;;;;;;19.90;49.10;;;;;;5039172;28;19980;-61
2023/12/28 11:39:47;;;;;;;;;;;19.90;49.10;;;;;;5022715;28;19960;-60
2023/12/28 11:42:14;;;;;;;;;;;19.90;49.10;;;;;;5012935;28;19951;-60
2023/12/28 11:44:42;;;;;;;;;;;19.90;49.10;;;;;;5013383;28;19928;-60
2023/12/28 11:47:12;;;;;;;;;;;19.90;49.10;;;;;;5050163;28;19924;-60
2023/12/28 11:49:41;;;;;;;;;;;19.90;49.10;;;;;;5020492;28;19920;-59
2023/12/28 11:52:07;;;;;;;;;;;19.90;49.10;;;;;;5023853;28;19932;-60
2023/12/28 11:54:35;;;;;;;;;;;19.90;49.10;;;;;;5044441;28;19959;-61
2023/12/28 11:57:02;;;;;;;;;;;19.90;49.10;;;;;;5031527;28;20431;-61
2023/12/28 11:59:29;;;;;;;;;;;19.90;49.10;;;;;;5028327;28;20397;-61
2023/12/28 12:01:56;;;;;;;;;;;20.00;49.20;;;;;;5024229;28;19925;-60
2023/12/28 12:04:22;;;;;;;;;;;19.90;49.10;;;;;;5029382;28;19929;-61
2023/12/28 12:06:50;;;;;;;;;;;19.90;49.10;;;;;;5023428;28;19921;-61
2023/12/28 12:09:18;;;;;;;;;;;20.00;49.20;;;;;;5038634;28;20019;-61
2023/12/28 12:11:46;;;;;;;;;;;20.00;49.20;;;;;;5036200;28;19932;-60
2023/12/28 12:14:13;;;;;;;;;;;20.00;49.20;;;;;;5028453;28;19921;-60
2023/12/28 12:16:40;;;;;;;;;;;19.90;49.10;;;;;;5025673;28;19921;-61
2023/12/28 12:19:07;;;;;;;;;;;20.00;49.20;;;;;;5042860;28;19925;-60
2023/12/28 12:21:34;;;;;;;;;;;20.00;49.20;;;;;;5026650;28;20010;-60
2023/12/28 12:24:02;;;;;;;;;;;19.90;49.10;;;;;;5024347;28;19928;-61
2023/12/28 12:26:29;;;;;;;;;;;19.90;49.10;;;;;;5027744;28;20198;-61
2023/12/28 12:28:57;;;;;;;;;;;19.90;49.10;;;;;;5021190;28;20092;-60
2023/12/28 12:31:24;;;;;;;;;;;19.90;49.10;;;;;;5041693;28;19996;-61
2023/12/28 12:33:51;;;;;;;;;;;20.00;49.20;;;;;;5046891;28;19932;-60
2023/12/28 12:36:18;;;;;;;;;;;19.90;49.10;;;;;;5028668;28;19936;-61
2023/12/28 12:38:45;;;;;;;;;;;19.90;49.10;;;;;;5023559;28;19921;-61
2023/12/28 12:41:12;;;;;;;;;;;20.00;49.20;;;;;;5024601;28;19929;-61
2023/12/28 12:43:40;;;;;;;;;;;19.90;49.10;;;;;;5027551;28;19920;-60
2023/12/28 12:46:08;;;;;;;;;;;19.90;49.10;;;;;;5023239;28;19932;-61
2023/12/28 12:48:35;;;;;;;;;;;20.00;49.20;;;;;;5015213;28;19925;-61
2023/12/28 12:51:03;;;;;;;;;;;19.90;49.10;;;;;;5042982;28;19956;-60
2023/12/28 12:53:47;;;;;;;;;;;20.00;49.20;;;;;;5122562;27;19914;-58
2023/12/28 12:56:14;;;;;;;;;;;20.00;49.20;;;;;;5107199;28;19920;-59
2023/12/28 12:58:41;;;;;;;;;;;20.00;49.20;;;;;;5138083;27;19920;-58
2023/12/28 13:01:10;;;;;;;;;;;20.00;49.10;;;;;;5107988;28;19932;-59
2023/12/28 13:03:38;;;;;;;;;;;19.90;49.00;;;;;;5111837;28;19928;-59
2023/12/28 13:06:04;;;;;;;;;;;19.90;49.10;;;;;;5108886;28;19966;-59
2023/12/28 13:08:31;;;;;;;;;;;19.90;49.00;;;;;;5116092;28;19919;-59
2023/12/28 13:10:59;;;;;;;;;;;19.90;49.00;;;;;;5112148;28;19976;-59
2023/12/28 13:13:26;;;;;;;;;;;19.90;49.00;;;;;;5114043;28;19977;-59
2023/12/28 13:15:53;;;;;;;;;;;20.00;49.10;;;;;;5133338;27;19928;-60
2023/12/28 13:18:20;;;;;;;;;;;19.90;49.10;;;;;;5103241;28;19928;-59
2023/12/28 13:20:46;;;;;;;;;;;20.00;49.20;;;;;;5113111;28;19920;-59
2023/12/28 13:23:13;;;;;;;;;;;19.90;49.10;;;;;;5104939;28;20371;-59
2023/12/28 13:25:40;;;;;;;;;;;19.90;49.00;;;;;;5105659;28;19924;-60
2023/12/28 13:28:08;;;;;;;;;;;19.90;49.10;;;;;;5109316;28;19932;-59
2023/12/28 13:30:36;;;;;;;;;;;19.90;49.10;;;;;;5111698;28;20316;-59
2023/12/28 13:33:03;;;;;;;;;;;19.90;49.10;;;;;;5104590;28;19954;-59
2023/12/28 13:35:30;;;;;;;;;;;19.90;49.10;;;;;;5117458;28;19931;-60
2023/12/28 13:37:57;;;;;;;;;;;19.90;49.10;;;;;;5092039;28;19924;-59
2023/12/28 13:40:24;;;;;;;;;;;19.90;49.10;;;;;;5106628;28;19924;-58
2023/12/28 13:42:51;;;;;;;;;;;20.00;49.20;;;;;;5106679;28;19924;-59
2023/12/28 13:45:19;;;;;;;;;;;19.90;49.10;;;;;;5106348;28;19927;-60
2023/12/28 13:47:44;;;;;;;;;;;19.90;49.10;;;;;;5112653;28;19924;-60
2023/12/28 13:50:11;;;;;;;;;;;19.90;49.10;;;;;;5139764;27;19935;-59
2023/12/28 13:52:38;;;;;;;;;;;19.90;49.10;;;;;;5106509;28;20250;-59
2023/12/28 13:55:05;;;;;;;;;;;19.90;49.10;;;;;;5092542;28;19920;-59
2023/12/28 13:57:31;;;;;;;;;;;20.00;49.20;;;;;;5087953;28;19920;-59
2023/12/28 14:00:00;;;;;;;;;;;19.90;49.10;;;;;;5106234;28;19964;-59
2023/12/28 14:02:28;;;;;;;;;;;20.00;49.20;;;;;;5113740;28;19924;-59
2023/12/28 14:04:56;;;;;;;;;;;19.90;49.10;;;;;;5074620;28;20284;-60
2023/12/28 14:07:22;;;;;;;;;;;19.90;49.20;;;;;;5092129;28;19920;-59
2023/12/28 14:09:49;;;;;;;;;;;19.90;49.10;;;;;;5079794;28;19924;-60
2023/12/28 14:12:16;;;;;;;;;;;19.90;49.10;;;;;;5077445;28;19924;-59
2023/12/28 14:14:42;;;;;;;;;;;19.90;49.10;;;;;;5076200;28;19924;-60
2023/12/28 14:17:09;;;;;;;;;;;20.00;49.20;;;;;;5096712;28;19988;-59